createdAt,value
2019-05-19T00:00:14.425Z,19.40
2019-05-19T00:01:15.030Z,19.26
2019-05-19T00:02:15.602Z,19.26
2019-05-19T00:03:16.225Z,19.41
2019-05-19T00:04:16.772Z,19.29
2019-05-19T00:05:17.365Z,19.30
2019-05-19T00:06:17.978Z,19.34
2019-05-19T00:07:18.548Z,19.31
2019-05-19T00:08:19.126Z,19.34
2019-05-19T00:09:19.692Z,19.31
2019-05-19T00:10:20.263Z,19.31
2019-05-19T00:11:20.834Z,19.26
2019-05-19T00:12:21.406Z,19.31
2019-05-19T00:13:22.019Z,19.31
2019-05-19T00:14:22.592Z,19.31
2019-05-19T00:15:23.184Z,19.31
2019-05-19T00:16:23.777Z,19.33
2019-05-19T00:17:24.391Z,19.26
2019-05-19T00:18:24.963Z,19.22
2019-05-19T00:19:27.030Z,19.29
2019-05-19T00:20:26.140Z,19.30
2019-05-19T00:21:26.719Z,19.26
2019-05-19T00:22:27.324Z,19.36
2019-05-19T00:23:27.895Z,19.19
2019-05-19T00:24:28.466Z,19.22
2019-05-19T00:25:29.057Z,19.29
2019-05-19T00:26:29.653Z,19.27
2019-05-19T00:27:30.227Z,19.22
2019-05-19T00:28:30.842Z,19.26
2019-05-19T00:29:31.426Z,19.31
2019-05-19T00:30:31.983Z,19.22
2019-05-19T00:31:32.555Z,19.16
2019-05-19T00:32:33.124Z,19.24
2019-05-19T00:33:33.695Z,19.19
2019-05-19T00:34:34.307Z,19.21
2019-05-19T00:35:34.895Z,19.30
2019-05-19T00:36:35.496Z,19.29
2019-05-19T00:37:36.069Z,19.21
2019-05-19T00:38:36.683Z,19.26
2019-05-19T00:39:37.275Z,19.21
2019-05-19T00:40:37.869Z,19.22
2019-05-19T00:41:38.440Z,19.26
2019-05-19T00:42:39.015Z,19.26
2019-05-19T00:43:39.582Z,19.21
2019-05-19T00:44:40.153Z,19.16
2019-05-19T00:45:40.723Z,19.21
2019-05-19T00:46:41.304Z,19.19
2019-05-19T00:47:41.912Z,19.26
2019-05-19T00:48:42.479Z,19.18
2019-05-19T00:49:43.058Z,19.19
2019-05-19T00:50:43.622Z,19.29
2019-05-19T00:51:44.190Z,19.21
2019-05-19T00:52:44.763Z,19.21
2019-05-19T00:53:45.334Z,19.21
2019-05-19T00:54:45.916Z,19.15
2019-05-19T00:55:46.476Z,19.26
2019-05-19T00:56:47.048Z,19.22
2019-05-19T00:57:47.618Z,19.16
2019-05-19T00:58:48.188Z,19.21
2019-05-19T00:59:48.759Z,19.26
2019-05-19T01:00:49.331Z,19.22
2019-05-19T01:01:49.906Z,19.16
2019-05-19T01:02:50.515Z,19.21
2019-05-19T01:03:51.090Z,19.19
2019-05-19T01:04:51.659Z,19.16
2019-05-19T01:05:52.227Z,19.19
2019-05-19T01:06:52.804Z,19.21
2019-05-19T01:07:53.415Z,19.16
2019-05-19T01:08:53.986Z,19.15
2019-05-19T01:09:54.557Z,19.11
2019-05-19T01:10:55.127Z,19.18
2019-05-19T01:11:55.697Z,19.14
2019-05-19T01:12:56.269Z,19.26
2019-05-19T01:13:56.838Z,19.14
2019-05-19T01:14:57.409Z,19.18
2019-05-19T01:15:57.978Z,19.11
2019-05-19T01:16:58.548Z,19.18
2019-05-19T01:17:59.119Z,19.12
2019-05-19T01:18:59.689Z,19.21
2019-05-19T01:20:00.257Z,19.12
2019-05-19T01:21:00.829Z,19.12
2019-05-19T01:22:01.405Z,19.14
2019-05-19T01:23:01.969Z,19.11
2019-05-19T01:24:02.541Z,19.19
2019-05-19T01:25:03.111Z,19.15
2019-05-19T01:26:03.682Z,19.14
2019-05-19T01:27:04.254Z,19.14
2019-05-19T01:28:04.827Z,19.18
2019-05-19T01:29:05.401Z,19.09
2019-05-19T01:30:05.965Z,19.09
2019-05-19T01:31:06.540Z,19.19
2019-05-19T01:32:07.108Z,19.12
2019-05-19T01:33:07.722Z,19.12
2019-05-19T01:34:08.292Z,19.04
2019-05-19T01:35:08.867Z,19.02
2019-05-19T01:36:09.434Z,19.04
2019-05-19T01:37:10.008Z,19.11
2019-05-19T01:38:10.578Z,19.02
2019-05-19T01:39:11.145Z,19.08
2019-05-19T01:40:11.723Z,19.02
2019-05-19T01:41:12.291Z,19.09
2019-05-19T01:42:12.856Z,19.09
2019-05-19T01:43:13.431Z,18.98
2019-05-19T01:44:13.998Z,18.99
2019-05-19T01:45:14.618Z,19.04
2019-05-19T01:46:15.145Z,18.98
2019-05-19T01:47:15.715Z,18.96
2019-05-19T01:48:16.286Z,19.00
2019-05-19T01:49:16.857Z,18.99
2019-05-19T01:50:18.582Z,18.96
2019-05-19T01:51:18.992Z,19.02
2019-05-19T01:52:19.563Z,19.00
2019-05-19T01:53:20.131Z,19.00
2019-05-19T01:54:20.703Z,18.99
2019-05-19T01:55:21.274Z,18.99
2019-05-19T01:56:21.842Z,18.98
2019-05-19T01:57:22.416Z,19.00
2019-05-19T01:58:23.030Z,18.98
2019-05-19T01:59:23.599Z,18.99
2019-05-19T02:00:24.172Z,18.88
2019-05-19T02:01:24.743Z,18.88
2019-05-19T02:02:25.313Z,19.00
2019-05-19T02:03:25.884Z,18.99
2019-05-19T02:04:26.456Z,18.99
2019-05-19T02:05:27.028Z,18.89
2019-05-19T02:06:27.598Z,18.93
2019-05-19T02:07:28.183Z,18.88
2019-05-19T02:08:28.782Z,18.84
2019-05-19T02:09:29.362Z,18.92
2019-05-19T02:10:29.978Z,18.98
2019-05-19T02:11:30.547Z,18.86
2019-05-19T02:12:31.168Z,18.89
2019-05-19T02:13:31.733Z,18.86
2019-05-19T02:14:32.304Z,18.98
2019-05-19T02:15:32.877Z,18.98
2019-05-19T02:16:33.448Z,18.86
2019-05-19T02:17:34.018Z,18.92
2019-05-19T02:18:34.591Z,18.99
2019-05-19T02:19:35.161Z,18.89
2019-05-19T02:20:35.731Z,18.96
2019-05-19T02:21:36.301Z,18.90
2019-05-19T02:22:36.870Z,18.84
2019-05-19T02:23:37.440Z,18.95
2019-05-19T02:24:38.034Z,18.89
2019-05-19T02:25:38.579Z,18.92
2019-05-19T02:26:39.354Z,18.81
2019-05-19T02:27:39.970Z,18.88
2019-05-19T02:28:40.535Z,18.86
2019-05-19T02:29:41.105Z,18.86
2019-05-19T02:30:41.682Z,18.88
2019-05-19T02:31:42.291Z,18.89
2019-05-19T02:32:42.902Z,18.92
2019-05-19T02:33:43.471Z,18.89
2019-05-19T02:34:44.045Z,18.93
2019-05-19T02:35:44.657Z,18.92
2019-05-19T02:36:45.247Z,18.90
2019-05-19T02:37:45.821Z,18.93
2019-05-19T02:38:46.395Z,18.96
2019-05-19T02:39:46.962Z,18.93
2019-05-19T02:40:47.574Z,18.83
2019-05-19T02:41:48.145Z,18.86
2019-05-19T02:42:48.719Z,18.86
2019-05-19T02:43:49.328Z,18.89
2019-05-19T02:44:49.900Z,18.93
2019-05-19T02:45:50.512Z,18.86
2019-05-19T02:46:51.082Z,18.89
2019-05-19T02:47:51.662Z,18.90
2019-05-19T02:48:52.265Z,18.96
2019-05-19T02:49:52.844Z,18.89
2019-05-19T02:50:53.471Z,18.83
2019-05-19T02:51:54.011Z,18.89
2019-05-19T02:52:54.579Z,18.88
2019-05-19T02:53:55.151Z,18.90
2019-05-19T02:54:55.765Z,18.86
2019-05-19T02:55:56.336Z,18.86
2019-05-19T02:56:56.906Z,18.83
2019-05-19T02:57:57.476Z,18.83
2019-05-19T02:58:58.047Z,18.81
2019-05-19T02:59:58.620Z,18.83
2019-05-19T03:00:59.192Z,18.80
2019-05-19T03:01:59.759Z,18.75
2019-05-19T03:03:00.330Z,18.88
2019-05-19T03:04:00.898Z,18.80
2019-05-19T03:05:01.476Z,18.80
2019-05-19T03:06:02.050Z,18.86
2019-05-19T03:07:02.676Z,18.86
2019-05-19T03:08:03.276Z,18.80
2019-05-19T03:09:03.846Z,18.81
2019-05-19T03:10:04.420Z,18.78
2019-05-19T03:11:05.025Z,18.77
2019-05-19T03:12:05.596Z,18.84
2019-05-19T03:13:06.172Z,18.81
2019-05-19T03:14:06.779Z,18.80
2019-05-19T03:15:07.349Z,18.81
2019-05-19T03:16:07.949Z,18.77
2019-05-19T03:17:08.530Z,18.80
2019-05-19T03:18:09.135Z,18.80
2019-05-19T03:19:09.756Z,18.86
2019-05-19T03:20:10.341Z,18.78
2019-05-19T03:21:12.084Z,18.84
2019-05-19T03:22:11.560Z,18.77
2019-05-19T03:23:12.164Z,18.78
2019-05-19T03:24:12.776Z,18.75
2019-05-19T03:25:13.379Z,18.81
2019-05-19T03:26:13.963Z,18.77
2019-05-19T03:27:14.743Z,18.73
2019-05-19T03:28:15.351Z,18.74
2019-05-19T03:29:15.963Z,18.75
2019-05-19T03:30:16.537Z,18.77
2019-05-19T03:31:17.108Z,18.77
2019-05-19T03:32:17.722Z,18.70
2019-05-19T03:33:18.346Z,18.77
2019-05-19T03:34:18.947Z,18.78
2019-05-19T03:35:19.549Z,18.74
2019-05-19T03:36:20.162Z,18.71
2019-05-19T03:37:20.749Z,18.70
2019-05-19T03:38:21.369Z,18.74
2019-05-19T03:39:22.166Z,18.73
2019-05-19T03:40:22.777Z,18.73
2019-05-19T03:41:23.393Z,18.71
2019-05-19T03:42:23.963Z,18.74
2019-05-19T03:43:24.568Z,18.73
2019-05-19T03:44:25.146Z,18.74
2019-05-19T03:45:25.780Z,18.74
2019-05-19T03:46:26.330Z,18.73
2019-05-19T03:47:26.938Z,18.68
2019-05-19T03:48:27.541Z,18.73
2019-05-19T03:49:28.112Z,18.73
2019-05-19T03:50:28.762Z,18.74
2019-05-19T03:51:31.683Z,18.62
2019-05-19T03:52:29.948Z,18.71
2019-05-19T03:53:30.527Z,18.68
2019-05-19T03:54:31.086Z,18.62
2019-05-19T03:55:31.699Z,18.62
2019-05-19T03:56:47.080Z,18.68
2019-05-19T03:57:47.695Z,18.62
2019-05-19T03:58:48.262Z,18.62
2019-05-19T04:01:04.251Z,18.63
2019-05-19T04:02:04.823Z,18.68
2019-05-19T04:03:05.409Z,18.59
2019-05-19T04:04:05.960Z,18.58
2019-05-19T04:05:06.532Z,18.71
2019-05-19T04:06:07.103Z,18.58
2019-05-19T04:07:07.674Z,18.59
2019-05-19T04:08:08.288Z,18.63
2019-05-19T04:09:08.906Z,18.58
2019-05-19T04:10:09.515Z,18.59
2019-05-19T04:11:10.083Z,18.58
2019-05-19T04:12:10.656Z,18.58
2019-05-19T05:25:22.412Z,18.41
2019-05-19T05:26:23.030Z,18.45
2019-05-19T05:27:23.565Z,18.35
2019-05-19T10:30:41.842Z,20.26
2019-05-19T10:31:42.432Z,20.28
2019-05-19T10:32:43.075Z,20.29
2019-05-19T10:33:43.663Z,20.26
2019-05-19T10:34:44.237Z,20.37
2019-05-19T10:35:44.819Z,20.32
2019-05-19T10:36:45.399Z,20.32
2019-05-19T10:37:45.975Z,20.34
2019-05-19T10:38:46.551Z,20.36
2019-05-19T10:39:47.129Z,20.39
2019-05-19T10:40:47.741Z,20.44
2019-05-19T10:41:48.328Z,20.41
2019-05-19T10:42:48.905Z,20.41
2019-05-19T10:43:49.484Z,20.43
2019-05-19T10:44:50.103Z,20.47
2019-05-19T10:45:50.685Z,20.52
2019-05-19T10:46:51.259Z,20.47
2019-05-19T10:47:51.840Z,20.55
2019-05-19T10:48:52.416Z,20.58
2019-05-19T10:49:52.993Z,20.56
2019-05-19T10:50:53.571Z,20.62
2019-05-19T10:51:54.150Z,20.58
2019-05-19T10:52:54.728Z,20.65
2019-05-19T10:53:55.306Z,20.63
2019-05-19T10:54:55.884Z,20.63
2019-05-19T10:55:56.464Z,20.65
2019-05-19T10:56:57.042Z,20.63
2019-05-19T10:57:57.621Z,20.72
2019-05-19T10:58:58.245Z,20.70
2019-05-19T10:59:58.823Z,20.75
2019-05-19T11:00:59.401Z,20.77
2019-05-19T11:01:59.982Z,20.81
2019-05-19T11:03:00.562Z,20.80
2019-05-19T11:04:01.141Z,20.80
2019-05-19T11:05:01.725Z,20.78
2019-05-19T11:06:02.421Z,20.87
2019-05-19T11:07:02.984Z,20.87
2019-05-19T11:08:03.560Z,20.84
2019-05-19T11:09:04.141Z,20.90
2019-05-19T11:10:04.727Z,20.88
2019-05-19T11:11:05.301Z,20.84
2019-05-19T11:12:05.927Z,20.88
2019-05-19T11:13:06.479Z,20.85
2019-05-19T11:14:07.060Z,20.87
2019-05-19T11:15:07.645Z,20.96
2019-05-19T11:26:54.537Z,21.14
2019-05-19T11:27:55.131Z,21.12
2019-05-19T11:28:55.737Z,21.09
2019-05-19T11:29:56.330Z,21.20
2019-05-19T11:30:56.914Z,21.21
2019-05-19T11:31:57.543Z,21.20
2019-05-19T11:32:58.131Z,21.15
2019-05-19T11:33:58.713Z,21.30
2019-05-19T11:34:59.299Z,21.35
2019-05-19T11:35:59.878Z,21.37
2019-05-19T11:37:00.463Z,21.32
2019-05-19T11:38:01.048Z,21.36
2019-05-19T11:39:01.634Z,21.35
2019-05-19T11:41:17.900Z,21.42
2019-05-19T11:42:18.488Z,21.46
2019-05-19T11:43:19.073Z,21.46
2019-05-19T11:44:19.864Z,21.57
2019-05-19T11:45:20.447Z,21.57
2019-05-19T11:46:21.035Z,21.57
2019-05-19T11:47:21.618Z,21.64
2019-05-19T11:48:22.205Z,21.72
2019-05-19T11:49:22.788Z,21.75
2019-05-19T11:50:23.378Z,21.76
2019-05-19T11:51:23.958Z,21.93
2019-05-19T11:52:24.544Z,21.89
2019-05-19T11:53:25.130Z,21.91
2019-05-19T11:54:25.753Z,21.91
2019-05-19T11:55:26.339Z,21.98
2019-05-19T11:56:26.923Z,22.04
2019-05-19T11:57:27.507Z,22.06
2019-05-19T11:58:28.091Z,22.11
2019-05-19T11:59:29.088Z,22.11
2019-05-19T12:00:29.718Z,22.22
2019-05-19T12:01:30.298Z,22.23
2019-05-19T12:02:30.885Z,22.29
2019-05-19T12:03:31.470Z,22.45
2019-05-19T12:04:32.055Z,22.36
2019-05-19T12:05:32.648Z,22.50
2019-05-19T12:06:39.254Z,22.66
2019-05-19T12:07:34.808Z,22.68
2019-05-19T12:08:35.392Z,22.68
2019-05-19T12:09:35.979Z,22.80
2019-05-19T12:10:36.567Z,22.85
2019-05-19T12:11:37.149Z,22.94
2019-05-19T12:12:37.735Z,23.08
2019-05-19T12:13:38.325Z,23.20
2019-05-19T12:14:38.976Z,23.23
2019-05-19T12:15:39.613Z,23.27
2019-05-19T12:16:40.242Z,23.32
2019-05-19T12:17:40.864Z,23.39
2019-05-19T12:18:41.459Z,23.47
2019-05-19T12:19:42.042Z,23.55
2019-05-19T12:20:42.634Z,23.55
2019-05-19T12:22:01.944Z,23.80
2019-05-19T12:23:02.573Z,23.91
2019-05-19T12:24:03.211Z,23.88
2019-05-19T12:25:04.042Z,24.03
2019-05-19T12:26:04.668Z,24.11
2019-05-19T12:27:05.298Z,24.26
2019-05-19T12:28:12.585Z,24.24
2019-05-19T12:30:43.803Z,24.36
2019-05-19T12:31:44.393Z,24.42
2019-05-19T12:32:44.982Z,24.51
2019-05-19T12:35:01.015Z,24.55
2019-05-19T12:36:01.599Z,24.70
2019-05-19T12:37:02.233Z,24.68
2019-05-19T12:38:02.820Z,24.73
2019-05-19T12:39:03.460Z,24.74
2019-05-19T12:41:20.539Z,24.88
2019-05-19T12:42:21.130Z,25.03
2019-05-19T12:43:21.716Z,25.03
2019-05-19T12:44:22.305Z,25.13
2019-05-19T12:45:22.893Z,25.14
2019-05-19T12:46:23.481Z,25.25
2019-05-19T12:47:24.072Z,25.33
2019-05-19T12:48:24.658Z,25.40
2019-05-19T12:50:40.892Z,25.55
2019-05-19T12:51:41.482Z,25.66
2019-05-19T12:52:42.073Z,25.62
2019-05-19T12:53:42.669Z,25.63
2019-05-19T12:54:43.260Z,25.65
2019-05-19T12:55:43.846Z,25.70
2019-05-19T12:56:44.436Z,25.75
2019-05-19T12:57:45.025Z,25.75
2019-05-19T12:58:45.616Z,25.75
2019-05-19T12:59:46.203Z,25.84
2019-05-19T13:00:46.796Z,25.85
2019-05-19T13:01:47.430Z,25.78
2019-05-19T13:02:48.020Z,25.80
2019-05-19T13:03:48.617Z,25.85
2019-05-19T13:05:04.393Z,25.90
2019-05-19T13:05:50.804Z,25.73
2019-05-19T13:06:51.459Z,25.69
2019-05-19T13:07:52.049Z,25.44
2019-05-19T13:08:52.683Z,25.17
2019-05-19T13:09:53.283Z,24.85
2019-05-19T13:10:53.903Z,24.68
2019-05-19T13:11:54.694Z,24.57
2019-05-19T13:12:55.325Z,24.43
2019-05-19T13:13:55.923Z,24.23
2019-05-19T13:14:56.503Z,24.43
2019-05-19T13:15:57.133Z,24.88
2019-05-19T13:16:57.722Z,25.04
2019-05-19T13:17:58.307Z,25.26
2019-05-19T13:18:58.898Z,25.16
2019-05-19T13:19:59.487Z,25.14
2019-05-19T13:21:00.115Z,25.35
2019-05-19T13:22:00.751Z,25.41
2019-05-19T13:23:01.384Z,25.60
2019-05-19T13:24:02.219Z,25.77
2019-05-19T13:25:03.010Z,25.88
2019-05-19T13:26:03.597Z,25.84
2019-05-19T13:27:04.241Z,26.19
2019-05-19T13:28:04.865Z,26.18
2019-05-19T13:29:05.473Z,26.18
2019-05-19T13:30:06.069Z,26.00
2019-05-19T13:31:06.676Z,26.18
2019-05-19T13:32:07.263Z,26.29
2019-05-19T13:33:07.854Z,26.34
2019-05-19T13:34:08.443Z,26.37
2019-05-19T13:35:09.031Z,26.41
2019-05-19T13:36:09.625Z,26.41
2019-05-19T13:37:10.207Z,26.53
2019-05-19T13:38:10.795Z,26.52
2019-05-19T13:39:11.430Z,26.56
2019-05-19T13:40:12.064Z,26.48
2019-05-19T13:41:12.655Z,26.62
2019-05-19T13:42:13.254Z,26.53
2019-05-19T13:43:13.881Z,26.56
2019-05-19T13:44:14.517Z,26.62
2019-05-19T13:45:15.106Z,26.58
2019-05-19T13:46:15.696Z,26.58
2019-05-19T13:47:16.297Z,26.66
2019-05-19T13:48:16.920Z,26.58
2019-05-19T13:49:17.540Z,26.65
2019-05-19T13:50:18.140Z,26.65
2019-05-19T13:51:18.973Z,26.68
2019-05-19T13:53:35.048Z,26.58
2019-05-19T13:54:36.302Z,26.60
2019-05-19T13:56:52.358Z,26.59
2019-05-19T13:57:53.153Z,26.60
2019-05-19T14:01:28.596Z,26.48
2019-05-19T14:02:26.143Z,26.31
2019-05-19T14:05:58.555Z,25.60
2019-05-19T14:06:59.197Z,25.36
2019-05-19T14:07:59.829Z,25.28
2019-05-19T14:09:00.465Z,25.13
2019-05-19T14:10:01.290Z,25.08
2019-05-19T14:11:01.923Z,24.86
2019-05-19T14:12:02.560Z,24.81
2019-05-19T14:25:44.005Z,24.57
2019-05-19T14:26:44.586Z,24.68
2019-05-19T14:27:45.174Z,24.55
2019-05-19T14:28:45.803Z,24.66
2019-05-19T14:29:46.389Z,24.63
2019-05-19T14:30:46.973Z,24.54
2019-05-19T14:31:47.560Z,24.73
2019-05-19T14:32:48.153Z,24.81
2019-05-19T14:33:48.775Z,24.86
2019-05-19T14:34:49.392Z,24.95
2019-05-19T14:35:49.983Z,24.99
2019-05-19T14:36:50.564Z,24.96
2019-05-19T14:37:51.151Z,24.84
2019-05-19T14:38:51.735Z,24.88
2019-05-19T14:39:52.321Z,24.81
2019-05-19T14:40:52.906Z,24.77
2019-05-19T14:41:53.489Z,24.77
2019-05-19T14:42:54.084Z,24.84
2019-05-19T14:43:54.691Z,24.88
2019-05-19T14:44:55.239Z,25.01
2019-05-19T14:45:55.825Z,25.04
2019-05-19T14:46:56.406Z,25.01
2019-05-19T14:47:56.993Z,25.10
2019-05-19T14:48:57.619Z,25.10
2019-05-19T14:49:58.202Z,25.13
2019-05-19T14:50:58.787Z,25.14
2019-05-19T14:51:59.370Z,25.07
2019-05-19T14:52:59.999Z,24.98
2019-05-19T14:54:00.583Z,24.98
2019-05-19T14:55:01.164Z,24.99
2019-05-19T14:56:01.747Z,25.01
2019-05-19T14:57:02.369Z,24.98
2019-05-19T14:58:02.934Z,25.04
2019-05-19T14:59:03.517Z,24.93
2019-05-19T15:00:04.101Z,24.80
2019-05-19T15:01:04.727Z,24.57
2019-05-19T15:02:05.317Z,24.63
2019-05-19T15:03:05.897Z,24.36
2019-05-19T15:04:07.538Z,24.29
2019-05-19T15:05:08.528Z,24.13
2019-05-19T15:06:09.111Z,24.06
2019-05-19T15:07:09.702Z,24.08
2019-05-19T15:08:10.327Z,24.17
2019-05-19T15:09:10.916Z,24.24
2019-05-19T15:10:11.538Z,24.11
2019-05-19T15:11:12.118Z,24.14
2019-05-19T15:12:12.703Z,24.16
2019-05-19T15:13:13.286Z,24.14
2019-05-19T15:14:13.874Z,24.28
2019-05-19T15:15:14.453Z,24.29
2019-05-19T15:16:15.039Z,24.20
2019-05-19T15:17:15.621Z,24.08
2019-05-19T15:18:16.203Z,24.14
2019-05-19T15:19:16.785Z,24.02
2019-05-19T15:20:17.368Z,24.01
2019-05-19T15:21:17.952Z,24.06
2019-05-19T15:22:18.529Z,24.10
2019-05-19T15:23:19.113Z,24.14
2019-05-19T15:24:19.694Z,24.14
2019-05-19T15:25:20.275Z,24.06
2019-05-19T15:26:20.857Z,23.99
2019-05-19T15:27:21.438Z,23.95
2019-05-19T15:28:22.020Z,23.88
2019-05-19T15:29:22.602Z,23.92
2019-05-19T15:30:23.182Z,23.92
2019-05-19T15:31:23.764Z,23.81
2019-05-19T15:32:24.350Z,23.76
2019-05-19T15:33:24.953Z,23.80
2019-05-19T15:34:26.577Z,23.80
2019-05-19T15:35:27.159Z,23.91
2019-05-19T15:36:27.782Z,23.88
2019-05-19T15:37:28.365Z,23.77
2019-05-19T15:38:28.948Z,23.77
2019-05-19T15:39:29.578Z,23.76
2019-05-19T15:40:30.221Z,23.68
2019-05-19T15:42:46.257Z,23.65
2019-05-19T15:43:46.839Z,23.58
2019-05-19T15:44:47.422Z,23.44
2019-05-19T15:45:48.058Z,23.40
2019-05-19T15:46:48.642Z,23.51
2019-05-19T15:47:49.222Z,23.51
2019-05-19T15:48:49.803Z,23.50
2019-05-19T15:49:50.385Z,23.44
2019-05-19T15:50:51.018Z,23.46
2019-05-19T15:52:01.606Z,23.46
2019-05-19T15:52:52.223Z,23.54
2019-05-19T15:53:52.811Z,23.61
2019-05-19T15:54:53.392Z,23.69
2019-05-19T15:55:53.969Z,23.59
2019-05-19T15:56:54.594Z,23.74
2019-05-19T15:57:55.177Z,23.68
2019-05-19T15:58:55.763Z,23.76
2019-05-19T15:59:56.382Z,23.81
2019-05-19T16:00:56.977Z,23.80
2019-05-19T16:01:57.604Z,23.91
2019-05-19T16:02:58.221Z,23.87
2019-05-19T16:03:58.792Z,23.87
2019-05-19T16:04:59.374Z,23.88
2019-05-19T16:05:59.958Z,23.83
2019-05-19T16:07:00.538Z,23.88
2019-05-19T16:08:01.118Z,23.86
2019-05-19T16:09:01.700Z,23.88
2019-05-19T16:10:02.345Z,23.91
2019-05-19T16:11:02.907Z,23.86
2019-05-19T16:12:03.488Z,23.91
2019-05-19T16:13:04.071Z,23.87
2019-05-19T16:14:04.654Z,23.87
2019-05-19T16:15:05.233Z,23.92
2019-05-19T16:16:05.815Z,23.92
2019-05-19T16:17:06.395Z,23.87
2019-05-19T16:18:06.975Z,23.78
2019-05-19T16:19:07.598Z,23.83
2019-05-19T16:20:08.175Z,23.73
2019-05-19T16:21:08.756Z,23.66
2019-05-19T16:22:09.335Z,23.73
2019-05-19T16:23:09.916Z,23.63
2019-05-19T16:24:10.501Z,23.47
2019-05-19T16:25:11.119Z,23.54
2019-05-19T16:26:11.697Z,23.43
2019-05-19T16:27:12.918Z,23.34
2019-05-19T16:28:13.617Z,23.34
2019-05-19T16:29:14.198Z,23.37
2019-05-19T16:30:14.777Z,23.39
2019-05-19T16:31:15.359Z,23.27
2019-05-19T16:32:15.942Z,23.34
2019-05-19T16:33:16.678Z,23.31
2019-05-19T16:34:17.137Z,23.32
2019-05-19T16:35:17.716Z,23.24
2019-05-19T16:36:18.296Z,23.23
2019-05-19T16:37:18.875Z,23.23
2019-05-19T16:38:19.457Z,23.17
2019-05-19T16:39:20.038Z,23.18
2019-05-19T16:40:20.615Z,23.18
2019-05-19T16:41:21.194Z,23.18
2019-05-19T16:42:21.775Z,23.20
2019-05-19T16:43:22.354Z,23.17
2019-05-19T16:44:22.934Z,23.20
2019-05-19T16:45:23.511Z,23.21
2019-05-19T16:46:24.089Z,23.17
2019-05-19T16:47:24.669Z,23.18
2019-05-19T16:48:25.249Z,23.23
2019-05-19T16:49:25.825Z,23.18
2019-05-19T16:50:26.402Z,23.17
2019-05-19T16:51:26.982Z,23.05
2019-05-19T16:52:27.562Z,23.15
2019-05-19T16:53:28.142Z,23.08
2019-05-19T16:54:28.726Z,23.06
2019-05-19T16:55:29.354Z,23.18
2019-05-19T16:56:29.933Z,23.12
2019-05-19T16:57:30.513Z,23.02
2019-05-19T16:58:44.509Z,23.02
2019-05-19T16:59:32.662Z,23.03
2019-05-19T17:00:33.242Z,23.03
2019-05-19T17:01:33.821Z,23.08
2019-05-19T17:02:34.398Z,23.03
2019-05-19T17:03:34.976Z,23.02
2019-05-19T17:04:35.557Z,22.94
2019-05-19T17:05:36.137Z,22.98
2019-05-19T17:06:36.713Z,22.94
2019-05-19T17:07:37.294Z,22.90
2019-05-19T17:08:37.873Z,22.99
2019-05-19T17:09:38.454Z,22.88
2019-05-19T17:10:39.030Z,22.88
2019-05-19T17:11:54.330Z,22.85
2019-05-19T17:12:54.954Z,22.85
2019-05-19T17:13:55.533Z,22.83
2019-05-19T17:14:56.109Z,22.81
2019-05-19T17:15:56.689Z,22.81
2019-05-19T17:16:57.266Z,22.75
2019-05-19T17:17:57.848Z,22.73
2019-05-19T17:18:58.424Z,22.75
2019-05-19T17:19:59.003Z,22.63
2019-05-19T17:20:59.586Z,22.68
2019-05-19T17:22:00.163Z,22.66
2019-05-19T17:23:00.785Z,22.60
2019-05-19T17:24:01.400Z,22.62
2019-05-19T17:25:01.990Z,22.47
2019-05-19T17:26:02.567Z,22.41
2019-05-19T17:27:03.164Z,22.47
2019-05-19T17:28:03.772Z,22.36
2019-05-19T17:29:04.350Z,22.23
2019-05-19T17:30:04.971Z,22.25
2019-05-19T17:31:07.634Z,22.11
2019-05-19T17:32:07.122Z,22.14
2019-05-19T17:33:07.701Z,22.15
2019-05-19T17:34:08.279Z,22.06
2019-05-19T17:35:08.867Z,21.95
2019-05-19T17:36:09.442Z,21.93
2019-05-19T17:37:10.015Z,21.87
2019-05-19T17:38:10.590Z,21.91
2019-05-19T17:39:11.169Z,21.79
2019-05-19T17:40:11.747Z,21.73
2019-05-19T17:41:12.372Z,21.73
2019-05-19T17:42:13.830Z,21.70
2019-05-19T17:43:13.573Z,21.66
2019-05-19T17:44:14.150Z,21.54
2019-05-19T17:45:14.729Z,21.64
2019-05-19T17:46:15.361Z,21.57
2019-05-19T17:47:15.895Z,21.58
2019-05-19T17:48:26.105Z,21.57
2019-05-19T17:49:18.047Z,21.70
2019-05-19T17:50:18.627Z,21.69
2019-05-19T17:51:19.207Z,21.75
2019-05-19T17:52:19.804Z,21.67
2019-05-19T17:53:20.403Z,21.70
2019-05-19T17:54:20.982Z,21.79
2019-05-19T17:55:21.559Z,21.75
2019-05-19T17:56:22.135Z,21.73
2019-05-19T17:57:22.758Z,21.70
2019-05-19T17:58:23.384Z,21.66
2019-05-19T17:59:23.958Z,21.57
2019-05-19T18:00:24.539Z,21.58
2019-05-19T18:01:25.117Z,21.60
2019-05-19T18:02:25.696Z,21.54
2019-05-19T18:03:26.272Z,21.73
2019-05-19T18:04:26.851Z,21.69
2019-05-19T18:05:27.436Z,21.70
2019-05-19T18:06:29.804Z,21.66
2019-05-19T18:07:29.627Z,21.60
2019-05-19T18:08:30.203Z,21.69
2019-05-19T18:09:30.779Z,21.60
2019-05-19T18:10:31.401Z,21.57
2019-05-19T18:11:31.987Z,21.50
2019-05-19T18:12:32.599Z,21.46
2019-05-19T18:13:33.231Z,21.36
2019-05-19T18:14:33.804Z,21.45
2019-05-19T18:15:34.394Z,21.35
2019-05-19T18:16:35.008Z,21.35
2019-05-19T18:17:35.624Z,21.29
2019-05-19T18:18:36.247Z,21.29
2019-05-19T18:19:36.825Z,21.20
2019-05-19T18:20:37.405Z,21.24
2019-05-19T18:21:37.982Z,21.21
2019-05-19T18:22:38.558Z,21.15
2019-05-19T18:23:39.138Z,21.12
2019-05-19T18:24:39.715Z,21.07
2019-05-19T18:25:40.295Z,21.09
2019-05-19T18:26:40.872Z,21.05
2019-05-19T18:27:41.471Z,21.09
2019-05-19T18:28:42.076Z,21.07
2019-05-19T18:29:42.695Z,21.11
2019-05-19T18:30:43.276Z,21.11
2019-05-19T18:31:43.856Z,21.15
2019-05-19T18:32:44.432Z,21.14
2019-05-19T18:33:45.009Z,21.21
2019-05-19T18:34:45.589Z,21.24
2019-05-19T18:35:46.166Z,21.21
2019-05-19T18:36:46.784Z,21.11
2019-05-19T18:37:47.374Z,21.24
2019-05-19T18:38:47.938Z,21.20
2019-05-19T18:39:48.515Z,21.14
2019-05-19T18:40:49.094Z,21.07
2019-05-19T18:41:49.670Z,21.05
2019-05-19T18:42:50.252Z,21.07
2019-05-19T18:43:50.872Z,21.03
2019-05-19T18:44:51.450Z,21.09
2019-05-19T18:45:52.027Z,21.02
2019-05-19T18:46:52.642Z,21.05
2019-05-19T18:47:53.199Z,21.06
2019-05-19T18:48:53.768Z,21.00
2019-05-19T18:49:54.345Z,21.06
2019-05-19T18:50:54.921Z,21.05
2019-05-19T18:51:55.502Z,21.09
2019-05-19T18:52:56.121Z,21.07
2019-05-19T18:53:56.697Z,21.09
2019-05-19T18:54:57.275Z,21.03
2019-05-19T18:55:57.853Z,21.05
2019-05-19T18:56:58.430Z,20.96
2019-05-19T18:57:59.011Z,20.99
2019-05-19T18:58:59.583Z,20.99
2019-05-19T19:00:00.160Z,20.99
2019-05-19T19:01:00.741Z,20.97
2019-05-19T19:02:01.314Z,20.90
2019-05-19T19:03:01.889Z,20.81
2019-05-19T19:04:02.473Z,20.78
2019-05-19T19:05:03.044Z,20.72
2019-05-19T19:06:03.619Z,20.59
2019-05-19T19:07:04.195Z,20.62
2019-05-19T19:08:04.773Z,20.65
2019-05-19T19:09:05.364Z,20.59
2019-05-19T19:10:05.941Z,20.58
2019-05-19T19:11:06.527Z,20.55
2019-05-19T19:12:07.095Z,20.44
2019-05-19T19:13:07.682Z,20.47
2019-05-19T19:14:22.915Z,20.34
2019-05-19T19:15:23.493Z,20.29
2019-05-19T19:16:24.069Z,20.29
2019-05-19T19:17:24.643Z,20.25
2019-05-19T19:18:25.300Z,20.22
2019-05-19T19:19:25.877Z,20.25
2019-05-19T19:20:26.453Z,20.26
2019-05-19T19:21:27.031Z,20.14
2019-05-19T19:22:27.605Z,20.16
2019-05-19T19:23:28.183Z,20.07
2019-05-19T19:24:28.810Z,20.04
2019-05-19T19:25:44.196Z,20.06
2019-05-19T19:26:44.772Z,20.03
2019-05-19T19:27:45.349Z,20.04
2019-05-19T19:28:45.920Z,19.96
2019-05-19T19:30:00.616Z,19.92
2019-05-19T19:30:48.061Z,19.94
2019-05-19T19:31:49.056Z,19.92
2019-05-19T19:32:49.851Z,19.91
2019-05-19T19:33:50.469Z,19.94
2019-05-19T19:34:51.047Z,19.85
2019-05-19T19:35:51.622Z,19.88
2019-05-19T19:36:52.195Z,19.88
2019-05-19T19:37:52.769Z,19.81
2019-05-19T19:38:53.341Z,19.79
2019-05-19T19:39:53.915Z,19.79
2019-05-19T19:40:54.577Z,19.74
2019-05-19T19:41:55.103Z,19.71
2019-05-19T19:42:55.676Z,19.77
2019-05-19T19:43:56.249Z,19.71
2019-05-19T19:44:56.826Z,19.69
2019-05-19T19:45:57.399Z,19.70
2019-05-19T19:46:57.971Z,19.63
2019-05-19T19:47:58.542Z,19.67
2019-05-19T19:48:59.115Z,19.58
2019-05-19T19:49:59.690Z,19.62
2019-05-19T19:51:00.264Z,19.62
2019-05-19T19:52:00.833Z,19.59
2019-05-19T19:53:01.408Z,19.55
2019-05-19T19:54:02.032Z,19.55
2019-05-19T19:55:02.598Z,19.52
2019-05-19T19:56:03.172Z,19.44